Terminal Aerodrome Forecast
Issued by NWS

Home | Current Version | Previous Version | Text Only | Print | Product List | Glossary Off
Versions: 1 2 3 4 5 6 7 8 9 10 11 12 13 14 15 16 17 18 19

000
FTUS43 KEAX 181100
TAFSTJ
TAF
KSTJ 181134Z 1812/1912 08005KT 2SM -SN OVC030
      TEMPO 1812/1813 1SM -SN BR
     FM181500 07003KT 2SM BR OVC015
     FM182100 07003KT 5SM BR OVC020
     FM190400 02003KT 1SM BR OVC010=

USA.gov is the U.S. government's official web portal to all federal, state and local government web resources and services.